sensor_id;sensor_type;location;lat;lon;timestamp;P1;durP1;ratioP1;P2;durP2;ratioP2
31091;SDS011;67728;53.122;12.776;2023-02-12T00:00:19;298.98;;;59.45;;
31091;SDS011;67728;53.122;12.776;2023-02-12T00:01:51;298.35;;;58.67;;
31091;SDS011;67728;53.122;12.776;2023-02-12T00:03:22;296.23;;;58.95;;
31091;SDS011;67728;53.122;12.776;2023-02-12T00:04:53;297.90;;;59.20;;
31091;SDS011;67728;53.122;12.776;2023-02-12T00:06:26;295.60;;;58.88;;
31091;SDS011;67728;53.122;12.776;2023-02-12T00:07:57;296.38;;;58.90;;
31091;SDS011;67728;53.122;12.776;2023-02-12T00:09:28;295.15;;;59.05;;
31091;SDS011;67728;53.122;12.776;2023-02-12T00:11:05;296.60;;;59.03;;
31091;SDS011;67728;53.122;12.776;2023-02-12T00:12:38;295.95;;;58.85;;
31091;SDS011;67728;53.122;12.776;2023-02-12T00:14:10;296.17;;;59.17;;
31091;SDS011;67728;53.122;12.776;2023-02-12T00:15:42;296.90;;;59.30;;
31091;SDS011;67728;53.122;12.776;2023-02-12T00:17:12;299.38;;;59.45;;
31091;SDS011;67728;53.122;12.776;2023-02-12T00:18:44;298.33;;;58.28;;
31091;SDS011;67728;53.122;12.776;2023-02-12T00:20:16;297.40;;;58.53;;
31091;SDS011;67728;53.122;12.776;2023-02-12T00:21:49;298.10;;;58.60;;
31091;SDS011;67728;53.122;12.776;2023-02-12T00:23:21;296.85;;;58.60;;
31091;SDS011;67728;53.122;12.776;2023-02-12T00:24:52;297.95;;;58.78;;
31091;SDS011;67728;53.122;12.776;2023-02-12T00:26:24;298.60;;;59.25;;
31091;SDS011;67728;53.122;12.776;2023-02-12T00:27:56;298.20;;;58.95;;
31091;SDS011;67728;53.122;12.776;2023-02-12T00:29:27;298.85;;;58.70;;
31091;SDS011;67728;53.122;12.776;2023-02-12T00:31:03;297.38;;;58.67;;
31091;SDS011;67728;53.122;12.776;2023-02-12T00:32:35;297.90;;;58.65;;
31091;SDS011;67728;53.122;12.776;2023-02-12T00:34:08;299.73;;;59.83;;
31091;SDS011;67728;53.122;12.776;2023-02-12T00:35:40;297.95;;;59.67;;
31091;SDS011;67728;53.122;12.776;2023-02-12T00:37:12;298.25;;;58.97;;
31091;SDS011;67728;53.122;12.776;2023-02-12T00:38:44;297.50;;;58.67;;
31091;SDS011;67728;53.122;12.776;2023-02-12T00:40:16;296.10;;;58.95;;
31091;SDS011;67728;53.122;12.776;2023-02-12T00:41:47;295.65;;;59.08;;
31091;SDS011;67728;53.122;12.776;2023-02-12T00:43:18;297.08;;;59.30;;
31091;SDS011;67728;53.122;12.776;2023-02-12T00:44:50;295.67;;;58.38;;
31091;SDS011;67728;53.122;12.776;2023-02-12T00:46:22;297.58;;;59.17;;
31091;SDS011;67728;53.122;12.776;2023-02-12T00:47:53;299.10;;;58.95;;
31091;SDS011;67728;53.122;12.776;2023-02-12T00:49:25;296.65;;;58.33;;
31091;SDS011;67728;53.122;12.776;2023-02-12T00:50:57;297.73;;;59.13;;
31091;SDS011;67728;53.122;12.776;2023-02-12T00:52:30;296.80;;;58.10;;
31091;SDS011;67728;53.122;12.776;2023-02-12T00:54:02;298.70;;;58.97;;
31091;SDS011;67728;53.122;12.776;2023-02-12T00:55:33;298.05;;;59.25;;
31091;SDS011;67728;53.122;12.776;2023-02-12T00:57:04;298.27;;;58.78;;
31091;SDS011;67728;53.122;12.776;2023-02-12T00:58:36;297.58;;;58.72;;
31091;SDS011;67728;53.122;12.776;2023-02-12T01:00:08;297.60;;;59.28;;
31091;SDS011;67728;53.122;12.776;2023-02-12T01:01:40;297.50;;;58.80;;
31091;SDS011;67728;53.122;12.776;2023-02-12T01:03:12;296.70;;;58.65;;
31091;SDS011;67728;53.122;12.776;2023-02-12T01:04:44;297.92;;;59.05;;
31091;SDS011;67728;53.122;12.776;2023-02-12T01:06:15;296.85;;;58.15;;
31091;SDS011;67728;53.122;12.776;2023-02-12T01:07:49;296.02;;;58.80;;
31091;SDS011;67728;53.122;12.776;2023-02-12T01:09:21;297.83;;;58.03;;
31091;SDS011;67728;53.122;12.776;2023-02-12T01:10:53;299.58;;;58.28;;
31091;SDS011;67728;53.122;12.776;2023-02-12T01:12:26;297.30;;;59.03;;
31091;SDS011;67728;53.122;12.776;2023-02-12T01:13:57;299.35;;;58.70;;
31091;SDS011;67728;53.122;12.776;2023-02-12T01:15:29;297.40;;;58.63;;
31091;SDS011;67728;53.122;12.776;2023-02-12T01:17:01;298.35;;;58.83;;
31091;SDS011;67728;53.122;12.776;2023-02-12T01:18:33;296.40;;;58.33;;
31091;SDS011;67728;53.122;12.776;2023-02-12T01:20:06;298.40;;;58.67;;
31091;SDS011;67728;53.122;12.776;2023-02-12T01:21:40;301.33;;;59.00;;
31091;SDS011;67728;53.122;12.776;2023-02-12T01:23:13;295.30;;;58.03;;
31091;SDS011;67728;53.122;12.776;2023-02-12T01:24:43;296.23;;;58.88;;
31091;SDS011;67728;53.122;12.776;2023-02-12T01:26:15;296.20;;;58.88;;
31091;SDS011;67728;53.122;12.776;2023-02-12T01:27:50;294.77;;;58.05;;
31091;SDS011;67728;53.122;12.776;2023-02-12T01:29:23;296.27;;;58.45;;
31091;SDS011;67728;53.122;12.776;2023-02-12T01:30:55;295.05;;;57.55;;
31091;SDS011;67728;53.122;12.776;2023-02-12T01:32:25;305.92;;;59.67;;
31091;SDS011;67728;53.122;12.776;2023-02-12T01:33:58;297.25;;;58.80;;
31091;SDS011;67728;53.122;12.776;2023-02-12T01:35:30;294.02;;;58.45;;
31091;SDS011;67728;53.122;12.776;2023-02-12T01:37:02;294.17;;;58.55;;
31091;SDS011;67728;53.122;12.776;2023-02-12T01:38:35;292.85;;;57.92;;
31091;SDS011;67728;53.122;12.776;2023-02-12T01:40:07;294.00;;;58.70;;
31091;SDS011;67728;53.122;12.776;2023-02-12T01:41:41;290.77;;;58.60;;
31091;SDS011;67728;53.122;12.776;2023-02-12T01:43:14;288.52;;;57.78;;
31091;SDS011;67728;53.122;12.776;2023-02-12T01:46:56;288.13;;;57.72;;
31091;SDS011;67728;53.122;12.776;2023-02-12T01:48:29;278.67;;;57.83;;
31091;SDS011;67728;53.122;12.776;2023-02-12T01:50:08;292.17;;;58.63;;
31091;SDS011;67728;53.122;12.776;2023-02-12T01:51:42;290.30;;;58.47;;
31091;SDS011;67728;53.122;12.776;2023-02-12T01:53:16;286.67;;;58.10;;
31091;SDS011;67728;53.122;12.776;2023-02-12T01:54:51;288.80;;;58.25;;
31091;SDS011;67728;53.122;12.776;2023-02-12T01:56:26;284.83;;;57.80;;
31091;SDS011;67728;53.122;12.776;2023-02-12T01:57:59;279.42;;;57.55;;
31091;SDS011;67728;53.122;12.776;2023-02-12T01:59:29;268.55;;;57.92;;
31091;SDS011;67728;53.122;12.776;2023-02-12T02:01:02;263.92;;;57.97;;
31091;SDS011;67728;53.122;12.776;2023-02-12T02:02:35;266.25;;;58.55;;
31091;SDS011;67728;53.122;12.776;2023-02-12T02:04:09;264.08;;;59.17;;
31091;SDS011;67728;53.122;12.776;2023-02-12T02:05:45;266.65;;;57.92;;
31091;SDS011;67728;53.122;12.776;2023-02-12T02:07:23;276.55;;;58.05;;
31091;SDS011;67728;53.122;12.776;2023-02-12T02:08:55;255.93;;;57.78;;
31091;SDS011;67728;53.122;12.776;2023-02-12T02:10:29;263.02;;;57.67;;
31091;SDS011;67728;53.122;12.776;2023-02-12T02:12:01;259.08;;;57.38;;
31091;SDS011;67728;53.122;12.776;2023-02-12T02:13:50;269.48;;;57.75;;
31091;SDS011;67728;53.122;12.776;2023-02-12T02:15:40;283.45;;;57.55;;
31091;SDS011;67728;53.122;12.776;2023-02-12T02:17:23;270.85;;;57.67;;
31091;SDS011;67728;53.122;12.776;2023-02-12T02:19:06;276.88;;;58.28;;
31091;SDS011;67728;53.122;12.776;2023-02-12T02:20:57;257.73;;;57.10;;
31091;SDS011;67728;53.122;12.776;2023-02-12T02:22:43;253.13;;;56.95;;
31091;SDS011;67728;53.122;12.776;2023-02-12T02:26:38;276.20;;;56.78;;
31091;SDS011;67728;53.122;12.776;2023-02-12T02:28:30;251.05;;;57.28;;
31091;SDS011;67728;53.122;12.776;2023-02-12T02:30:14;260.17;;;56.85;;
31091;SDS011;67728;53.122;12.776;2023-02-12T02:31:56;268.35;;;57.63;;
31091;SDS011;67728;53.122;12.776;2023-02-12T02:33:35;265.20;;;59.28;;
31091;SDS011;67728;53.122;12.776;2023-02-12T02:35:10;277.52;;;58.08;;
31091;SDS011;67728;53.122;12.776;2023-02-12T02:36:46;273.58;;;58.67;;
31091;SDS011;67728;53.122;12.776;2023-02-12T02:38:26;265.08;;;58.33;;
31091;SDS011;67728;53.122;12.776;2023-02-12T02:40:08;263.33;;;59.08;;
31091;SDS011;67728;53.122;12.776;2023-02-12T02:41:42;255.50;;;58.38;;
31091;SDS011;67728;53.122;12.776;2023-02-12T02:43:19;257.52;;;58.17;;
31091;SDS011;67728;53.122;12.776;2023-02-12T02:44:58;243.77;;;59.80;;
31091;SDS011;67728;53.122;12.776;2023-02-12T02:46:36;245.45;;;59.42;;
31091;SDS011;67728;53.122;12.776;2023-02-12T02:48:14;232.43;;;59.33;;
31091;SDS011;67728;53.122;12.776;2023-02-12T02:49:50;226.73;;;57.90;;
31091;SDS011;67728;53.122;12.776;2023-02-12T02:51:28;228.50;;;58.60;;
31091;SDS011;67728;53.122;12.776;2023-02-12T02:53:03;223.00;;;59.63;;
31091;SDS011;67728;53.122;12.776;2023-02-12T02:54:39;228.95;;;58.35;;
31091;SDS011;67728;53.122;12.776;2023-02-12T02:56:15;233.90;;;59.00;;
31091;SDS011;67728;53.122;12.776;2023-02-12T02:57:51;229.68;;;59.65;;
31091;SDS011;67728;53.122;12.776;2023-02-12T02:59:27;241.18;;;60.08;;
31091;SDS011;67728;53.122;12.776;2023-02-12T03:01:04;239.57;;;59.72;;
31091;SDS011;67728;53.122;12.776;2023-02-12T03:02:39;232.65;;;60.00;;
31091;SDS011;67728;53.122;12.776;2023-02-12T03:04:14;221.88;;;59.45;;
31091;SDS011;67728;53.122;12.776;2023-02-12T03:05:51;211.85;;;58.53;;
31091;SDS011;67728;53.122;12.776;2023-02-12T03:07:28;211.40;;;60.58;;
31091;SDS011;67728;53.122;12.776;2023-02-12T03:09:05;217.52;;;60.05;;
31091;SDS011;67728;53.122;12.776;2023-02-12T03:10:42;212.50;;;59.17;;
31091;SDS011;67728;53.122;12.776;2023-02-12T03:12:17;210.43;;;59.63;;
31091;SDS011;67728;53.122;12.776;2023-02-12T03:13:54;222.38;;;61.22;;
31091;SDS011;67728;53.122;12.776;2023-02-12T03:15:30;220.35;;;60.42;;
31091;SDS011;67728;53.122;12.776;2023-02-12T03:17:06;223.95;;;61.50;;
31091;SDS011;67728;53.122;12.776;2023-02-12T03:18:42;204.98;;;59.83;;
31091;SDS011;67728;53.122;12.776;2023-02-12T03:20:19;208.70;;;59.33;;
31091;SDS011;67728;53.122;12.776;2023-02-12T03:21:57;202.73;;;59.03;;
31091;SDS011;67728;53.122;12.776;2023-02-12T03:23:34;252.82;;;59.90;;
31091;SDS011;67728;53.122;12.776;2023-02-12T03:25:12;259.73;;;60.28;;
31091;SDS011;67728;53.122;12.776;2023-02-12T03:26:46;242.93;;;59.50;;
31091;SDS011;67728;53.122;12.776;2023-02-12T03:28:21;230.35;;;59.75;;
31091;SDS011;67728;53.122;12.776;2023-02-12T03:29:58;224.93;;;58.95;;
31091;SDS011;67728;53.122;12.776;2023-02-12T03:31:33;222.10;;;59.92;;
31091;SDS011;67728;53.122;12.776;2023-02-12T03:33:13;231.45;;;59.63;;
31091;SDS011;67728;53.122;12.776;2023-02-12T03:34:54;228.88;;;60.53;;
31091;SDS011;67728;53.122;12.776;2023-02-12T03:36:37;245.32;;;59.65;;
31091;SDS011;67728;53.122;12.776;2023-02-12T03:38:17;236.13;;;60.83;;
31091;SDS011;67728;53.122;12.776;2023-02-12T03:39:57;236.85;;;60.13;;
31091;SDS011;67728;53.122;12.776;2023-02-12T03:41:36;249.63;;;59.10;;
31091;SDS011;67728;53.122;12.776;2023-02-12T03:43:15;244.02;;;60.90;;
31091;SDS011;67728;53.122;12.776;2023-02-12T03:44:54;240.82;;;60.47;;
31091;SDS011;67728;53.122;12.776;2023-02-12T03:46:31;251.13;;;61.08;;
31091;SDS011;67728;53.122;12.776;2023-02-12T03:48:11;273.13;;;59.83;;
31091;SDS011;67728;53.122;12.776;2023-02-12T03:49:52;253.23;;;60.08;;
31091;SDS011;67728;53.122;12.776;2023-02-12T03:51:31;247.18;;;60.40;;
31091;SDS011;67728;53.122;12.776;2023-02-12T03:53:06;252.05;;;61.15;;
31091;SDS011;67728;53.122;12.776;2023-02-12T03:54:37;265.05;;;62.50;;
31091;SDS011;67728;53.122;12.776;2023-02-12T03:56:10;261.02;;;59.95;;
31091;SDS011;67728;53.122;12.776;2023-02-12T03:57:46;268.52;;;59.63;;
31091;SDS011;67728;53.122;12.776;2023-02-12T03:59:23;263.23;;;59.60;;
31091;SDS011;67728;53.122;12.776;2023-02-12T04:00:55;266.30;;;60.20;;
31091;SDS011;67728;53.122;12.776;2023-02-12T04:02:27;255.75;;;60.08;;
31091;SDS011;67728;53.122;12.776;2023-02-12T04:04:00;259.38;;;60.20;;
31091;SDS011;67728;53.122;12.776;2023-02-12T04:05:35;261.00;;;59.78;;
31091;SDS011;67728;53.122;12.776;2023-02-12T04:07:07;270.27;;;60.08;;
31091;SDS011;67728;53.122;12.776;2023-02-12T04:08:38;292.60;;;63.58;;
31091;SDS011;67728;53.122;12.776;2023-02-12T04:10:10;265.60;;;60.42;;
31091;SDS011;67728;53.122;12.776;2023-02-12T04:11:48;273.10;;;59.92;;
31091;SDS011;67728;53.122;12.776;2023-02-12T04:13:32;260.52;;;59.83;;
31091;SDS011;67728;53.122;12.776;2023-02-12T04:15:19;257.77;;;59.65;;
31091;SDS011;67728;53.122;12.776;2023-02-12T04:17:05;258.95;;;58.75;;
31091;SDS011;67728;53.122;12.776;2023-02-12T04:18:45;255.65;;;59.47;;
31091;SDS011;67728;53.122;12.776;2023-02-12T04:20:21;252.85;;;60.08;;
31091;SDS011;67728;53.122;12.776;2023-02-12T04:22:03;257.73;;;59.38;;
31091;SDS011;67728;53.122;12.776;2023-02-12T04:23:55;272.45;;;58.97;;
31091;SDS011;67728;53.122;12.776;2023-02-12T04:25:40;267.73;;;59.63;;
31091;SDS011;67728;53.122;12.776;2023-02-12T04:27:20;268.80;;;59.75;;
31091;SDS011;67728;53.122;12.776;2023-02-12T04:28:57;273.13;;;59.13;;
31091;SDS011;67728;53.122;12.776;2023-02-12T04:30:36;279.13;;;60.42;;
31091;SDS011;67728;53.122;12.776;2023-02-12T04:32:15;278.40;;;59.58;;
31091;SDS011;67728;53.122;12.776;2023-02-12T04:33:55;275.15;;;58.20;;
31091;SDS011;67728;53.122;12.776;2023-02-12T04:35:36;277.23;;;59.03;;
31091;SDS011;67728;53.122;12.776;2023-02-12T04:37:15;285.42;;;58.30;;
31091;SDS011;67728;53.122;12.776;2023-02-12T04:38:50;304.63;;;62.22;;
31091;SDS011;67728;53.122;12.776;2023-02-12T04:40:24;285.60;;;58.92;;
31091;SDS011;67728;53.122;12.776;2023-02-12T04:41:57;283.02;;;59.10;;
31091;SDS011;67728;53.122;12.776;2023-02-12T04:43:30;284.10;;;59.50;;
31091;SDS011;67728;53.122;12.776;2023-02-12T04:45:03;282.48;;;58.92;;
31091;SDS011;67728;53.122;12.776;2023-02-12T04:46:36;289.08;;;58.90;;
31091;SDS011;67728;53.122;12.776;2023-02-12T04:48:06;285.55;;;59.00;;
31091;SDS011;67728;53.122;12.776;2023-02-12T04:49:38;288.83;;;58.22;;
31091;SDS011;67728;53.122;12.776;2023-02-12T04:51:10;285.55;;;58.30;;
31091;SDS011;67728;53.122;12.776;2023-02-12T04:52:43;275.75;;;58.65;;
31091;SDS011;67728;53.122;12.776;2023-02-12T04:54:15;275.48;;;59.40;;
31091;SDS011;67728;53.122;12.776;2023-02-12T04:55:48;269.10;;;60.25;;
31091;SDS011;67728;53.122;12.776;2023-02-12T04:57:19;263.38;;;59.25;;
31091;SDS011;67728;53.122;12.776;2023-02-12T04:58:51;261.50;;;59.10;;
31091;SDS011;67728;53.122;12.776;2023-02-12T05:00:22;271.67;;;59.97;;
31091;SDS011;67728;53.122;12.776;2023-02-12T05:01:54;267.85;;;59.17;;
31091;SDS011;67728;53.122;12.776;2023-02-12T05:03:25;267.35;;;59.00;;
31091;SDS011;67728;53.122;12.776;2023-02-12T05:04:57;262.80;;;59.42;;
31091;SDS011;67728;53.122;12.776;2023-02-12T05:06:27;257.35;;;61.10;;
31091;SDS011;67728;53.122;12.776;2023-02-12T05:08:01;250.75;;;59.13;;
31091;SDS011;67728;53.122;12.776;2023-02-12T05:09:33;249.77;;;60.70;;
31091;SDS011;67728;53.122;12.776;2023-02-12T05:11:04;240.88;;;60.55;;
31091;SDS011;67728;53.122;12.776;2023-02-12T05:12:36;245.80;;;61.47;;
31091;SDS011;67728;53.122;12.776;2023-02-12T05:14:07;243.77;;;61.17;;
31091;SDS011;67728;53.122;12.776;2023-02-12T05:15:38;233.48;;;60.20;;
31091;SDS011;67728;53.122;12.776;2023-02-12T05:17:09;236.63;;;61.95;;
31091;SDS011;67728;53.122;12.776;2023-02-12T05:18:40;243.57;;;60.38;;
31091;SDS011;67728;53.122;12.776;2023-02-12T05:20:12;238.65;;;60.35;;
31091;SDS011;67728;53.122;12.776;2023-02-12T05:21:44;237.35;;;60.22;;
31091;SDS011;67728;53.122;12.776;2023-02-12T05:23:17;237.52;;;61.35;;
31091;SDS011;67728;53.122;12.776;2023-02-12T05:24:49;233.15;;;60.25;;
31091;SDS011;67728;53.122;12.776;2023-02-12T05:26:21;236.93;;;59.20;;
31091;SDS011;67728;53.122;12.776;2023-02-12T05:27:53;227.77;;;59.33;;
31091;SDS011;67728;53.122;12.776;2023-02-12T05:29:25;228.15;;;59.88;;
31091;SDS011;67728;53.122;12.776;2023-02-12T05:30:58;233.30;;;59.83;;
31091;SDS011;67728;53.122;12.776;2023-02-12T05:32:29;241.77;;;60.03;;
31091;SDS011;67728;53.122;12.776;2023-02-12T05:34:01;227.98;;;59.80;;
31091;SDS011;67728;53.122;12.776;2023-02-12T05:35:33;228.55;;;61.20;;
31091;SDS011;67728;53.122;12.776;2023-02-12T05:37:04;226.57;;;61.15;;
31091;SDS011;67728;53.122;12.776;2023-02-12T05:38:36;229.20;;;60.22;;
31091;SDS011;67728;53.122;12.776;2023-02-12T05:40:08;249.95;;;63.80;;
31091;SDS011;67728;53.122;12.776;2023-02-12T05:41:40;234.23;;;59.95;;
31091;SDS011;67728;53.122;12.776;2023-02-12T05:43:13;222.98;;;60.47;;
31091;SDS011;67728;53.122;12.776;2023-02-12T05:44:43;238.93;;;60.25;;
31091;SDS011;67728;53.122;12.776;2023-02-12T05:46:15;232.80;;;59.92;;
31091;SDS011;67728;53.122;12.776;2023-02-12T05:47:47;226.50;;;59.78;;
31091;SDS011;67728;53.122;12.776;2023-02-12T05:49:18;228.30;;;59.70;;
31091;SDS011;67728;53.122;12.776;2023-02-12T05:50:50;230.05;;;59.95;;
31091;SDS011;67728;53.122;12.776;2023-02-12T05:52:22;238.65;;;61.00;;
31091;SDS011;67728;53.122;12.776;2023-02-12T05:53:56;232.23;;;60.03;;
31091;SDS011;67728;53.122;12.776;2023-02-12T05:55:29;236.38;;;59.22;;
31091;SDS011;67728;53.122;12.776;2023-02-12T05:57:01;246.35;;;60.22;;
31091;SDS011;67728;53.122;12.776;2023-02-12T05:58:31;249.70;;;60.55;;
31091;SDS011;67728;53.122;12.776;2023-02-12T06:00:03;243.65;;;59.45;;
31091;SDS011;67728;53.122;12.776;2023-02-12T06:01:37;249.95;;;60.38;;
31091;SDS011;67728;53.122;12.776;2023-02-12T06:03:10;253.10;;;60.42;;
31091;SDS011;67728;53.122;12.776;2023-02-12T06:04:41;260.63;;;59.80;;
31091;SDS011;67728;53.122;12.776;2023-02-12T06:06:13;253.95;;;60.47;;
31091;SDS011;67728;53.122;12.776;2023-02-12T06:07:44;250.60;;;60.60;;
31091;SDS011;67728;53.122;12.776;2023-02-12T06:09:17;279.13;;;59.38;;
31091;SDS011;67728;53.122;12.776;2023-02-12T06:10:49;262.67;;;58.90;;
31091;SDS011;67728;53.122;12.776;2023-02-12T06:12:20;263.27;;;60.28;;
31091;SDS011;67728;53.122;12.776;2023-02-12T06:13:51;261.50;;;59.60;;
31091;SDS011;67728;53.122;12.776;2023-02-12T06:15:23;262.05;;;59.90;;
31091;SDS011;67728;53.122;12.776;2023-02-12T06:16:54;264.85;;;60.28;;
31091;SDS011;67728;53.122;12.776;2023-02-12T06:18:25;270.92;;;60.55;;
31091;SDS011;67728;53.122;12.776;2023-02-12T06:19:58;266.52;;;59.90;;
31091;SDS011;67728;53.122;12.776;2023-02-12T06:21:30;268.27;;;59.00;;
31091;SDS011;67728;53.122;12.776;2023-02-12T06:23:01;268.75;;;60.08;;
31091;SDS011;67728;53.122;12.776;2023-02-12T06:24:34;279.02;;;60.17;;
31091;SDS011;67728;53.122;12.776;2023-02-12T06:26:07;278.38;;;60.20;;
31091;SDS011;67728;53.122;12.776;2023-02-12T06:27:38;273.73;;;59.25;;
31091;SDS011;67728;53.122;12.776;2023-02-12T06:29:09;285.85;;;60.03;;
31091;SDS011;67728;53.122;12.776;2023-02-12T06:30:42;307.33;;;62.00;;
31091;SDS011;67728;53.122;12.776;2023-02-12T06:32:13;288.33;;;60.55;;
31091;SDS011;67728;53.122;12.776;2023-02-12T06:33:44;293.25;;;58.83;;
31091;SDS011;67728;53.122;12.776;2023-02-12T06:35:16;296.25;;;59.25;;
31091;SDS011;67728;53.122;12.776;2023-02-12T06:36:47;292.42;;;60.03;;
31091;SDS011;67728;53.122;12.776;2023-02-12T06:38:19;299.55;;;62.25;;
31091;SDS011;67728;53.122;12.776;2023-02-12T06:39:52;294.15;;;59.72;;
31091;SDS011;67728;53.122;12.776;2023-02-12T06:41:24;293.70;;;59.10;;
31091;SDS011;67728;53.122;12.776;2023-02-12T06:42:55;300.23;;;60.75;;
31091;SDS011;67728;53.122;12.776;2023-02-12T06:44:27;293.98;;;59.65;;
31091;SDS011;67728;53.122;12.776;2023-02-12T06:45:59;310.00;;;62.88;;
31091;SDS011;67728;53.122;12.776;2023-02-12T06:47:31;295.83;;;60.35;;
31091;SDS011;67728;53.122;12.776;2023-02-12T06:49:02;296.20;;;61.35;;
31091;SDS011;67728;53.122;12.776;2023-02-12T06:50:34;294.52;;;60.92;;
31091;SDS011;67728;53.122;12.776;2023-02-12T06:52:06;295.88;;;61.03;;
31091;SDS011;67728;53.122;12.776;2023-02-12T06:53:37;297.40;;;61.00;;
31091;SDS011;67728;53.122;12.776;2023-02-12T06:55:10;297.65;;;59.95;;
31091;SDS011;67728;53.122;12.776;2023-02-12T06:56:42;292.38;;;59.38;;
31091;SDS011;67728;53.122;12.776;2023-02-12T06:58:15;300.85;;;61.85;;
31091;SDS011;67728;53.122;12.776;2023-02-12T06:59:46;288.60;;;61.13;;
31091;SDS011;67728;53.122;12.776;2023-02-12T07:01:20;291.30;;;61.40;;
31091;SDS011;67728;53.122;12.776;2023-02-12T07:02:53;286.83;;;60.28;;
31091;SDS011;67728;53.122;12.776;2023-02-12T07:04:25;281.75;;;58.80;;
31091;SDS011;67728;53.122;12.776;2023-02-12T07:05:57;284.15;;;59.90;;
31091;SDS011;67728;53.122;12.776;2023-02-12T07:07:28;291.83;;;61.85;;
31091;SDS011;67728;53.122;12.776;2023-02-12T07:09:00;304.92;;;63.33;;
31091;SDS011;67728;53.122;12.776;2023-02-12T07:12:06;290.20;;;61.03;;
31091;SDS011;67728;53.122;12.776;2023-02-12T07:13:39;269.90;;;59.88;;
31091;SDS011;67728;53.122;12.776;2023-02-12T07:15:11;266.42;;;60.38;;
31091;SDS011;67728;53.122;12.776;2023-02-12T07:16:43;259.52;;;60.42;;
31091;SDS011;67728;53.122;12.776;2023-02-12T07:18:15;259.88;;;61.05;;
31091;SDS011;67728;53.122;12.776;2023-02-12T07:19:46;278.50;;;62.15;;
31091;SDS011;67728;53.122;12.776;2023-02-12T07:21:18;274.00;;;60.08;;
31091;SDS011;67728;53.122;12.776;2023-02-12T07:22:50;277.48;;;60.60;;
31091;SDS011;67728;53.122;12.776;2023-02-12T07:24:22;300.77;;;65.55;;
31091;SDS011;67728;53.122;12.776;2023-02-12T07:25:55;295.92;;;60.78;;
31091;SDS011;67728;53.122;12.776;2023-02-12T07:27:27;298.63;;;59.92;;
31091;SDS011;67728;53.122;12.776;2023-02-12T07:29:00;300.00;;;59.38;;
31091;SDS011;67728;53.122;12.776;2023-02-12T07:30:31;300.75;;;59.67;;
31091;SDS011;67728;53.122;12.776;2023-02-12T07:32:02;298.73;;;58.60;;
31091;SDS011;67728;53.122;12.776;2023-02-12T07:33:34;302.27;;;59.92;;
31091;SDS011;67728;53.122;12.776;2023-02-12T07:35:07;301.98;;;60.70;;
31091;SDS011;67728;53.122;12.776;2023-02-12T07:36:38;302.27;;;62.20;;
31091;SDS011;67728;53.122;12.776;2023-02-12T07:38:11;322.67;;;64.95;;
31091;SDS011;67728;53.122;12.776;2023-02-12T07:39:43;299.08;;;61.60;;
31091;SDS011;67728;53.122;12.776;2023-02-12T07:41:16;298.02;;;60.85;;
31091;SDS011;67728;53.122;12.776;2023-02-12T07:42:53;298.13;;;59.95;;
31091;SDS011;67728;53.122;12.776;2023-02-12T07:44:25;299.50;;;61.05;;
31091;SDS011;67728;53.122;12.776;2023-02-12T07:46:01;296.17;;;61.03;;
31091;SDS011;67728;53.122;12.776;2023-02-12T07:47:36;291.73;;;60.45;;
31091;SDS011;67728;53.122;12.776;2023-02-12T07:49:10;299.25;;;63.33;;
31091;SDS011;67728;53.122;12.776;2023-02-12T07:50:43;292.25;;;60.95;;
31091;SDS011;67728;53.122;12.776;2023-02-12T07:52:14;293.05;;;60.22;;
31091;SDS011;67728;53.122;12.776;2023-02-12T07:53:46;294.45;;;62.95;;
31091;SDS011;67728;53.122;12.776;2023-02-12T07:55:18;294.55;;;61.30;;
31091;SDS011;67728;53.122;12.776;2023-02-12T07:56:51;311.17;;;64.25;;
31091;SDS011;67728;53.122;12.776;2023-02-12T07:58:23;305.58;;;64.30;;
31091;SDS011;67728;53.122;12.776;2023-02-12T07:59:54;295.85;;;63.05;;
31091;SDS011;67728;53.122;12.776;2023-02-12T08:01:27;291.17;;;62.92;;
31091;SDS011;67728;53.122;12.776;2023-02-12T08:02:59;282.27;;;63.78;;
31091;SDS011;67728;53.122;12.776;2023-02-12T08:04:31;285.70;;;64.30;;
31091;SDS011;67728;53.122;12.776;2023-02-12T08:06:05;275.17;;;63.00;;
31091;SDS011;67728;53.122;12.776;2023-02-12T08:07:37;282.35;;;63.90;;
31091;SDS011;67728;53.122;12.776;2023-02-12T08:09:09;280.90;;;64.47;;
31091;SDS011;67728;53.122;12.776;2023-02-12T08:10:42;281.58;;;63.88;;
31091;SDS011;67728;53.122;12.776;2023-02-12T08:12:15;259.58;;;61.20;;
31091;SDS011;67728;53.122;12.776;2023-02-12T08:13:47;269.80;;;62.60;;
31091;SDS011;67728;53.122;12.776;2023-02-12T08:15:18;261.48;;;63.33;;
31091;SDS011;67728;53.122;12.776;2023-02-12T08:16:50;264.38;;;62.03;;
31091;SDS011;67728;53.122;12.776;2023-02-12T08:18:22;254.57;;;60.97;;
31091;SDS011;67728;53.122;12.776;2023-02-12T08:19:52;250.50;;;60.28;;
31091;SDS011;67728;53.122;12.776;2023-02-12T08:21:25;254.15;;;61.35;;
31091;SDS011;67728;53.122;12.776;2023-02-12T08:22:57;243.75;;;60.70;;
31091;SDS011;67728;53.122;12.776;2023-02-12T08:24:29;252.73;;;60.13;;
31091;SDS011;67728;53.122;12.776;2023-02-12T08:26:05;251.88;;;60.63;;
31091;SDS011;67728;53.122;12.776;2023-02-12T08:27:41;235.60;;;60.70;;
31091;SDS011;67728;53.122;12.776;2023-02-12T08:29:14;238.55;;;60.05;;
31091;SDS011;67728;53.122;12.776;2023-02-12T08:30:47;255.27;;;60.13;;
31091;SDS011;67728;53.122;12.776;2023-02-12T08:32:18;261.80;;;60.75;;
31091;SDS011;67728;53.122;12.776;2023-02-12T08:33:50;272.25;;;60.38;;
31091;SDS011;67728;53.122;12.776;2023-02-12T08:35:23;265.70;;;60.10;;
31091;SDS011;67728;53.122;12.776;2023-02-12T08:36:55;261.05;;;59.70;;
31091;SDS011;67728;53.122;12.776;2023-02-12T08:38:27;266.00;;;60.25;;
31091;SDS011;67728;53.122;12.776;2023-02-12T08:39:58;252.15;;;61.13;;
31091;SDS011;67728;53.122;12.776;2023-02-12T08:41:30;269.13;;;59.55;;
31091;SDS011;67728;53.122;12.776;2023-02-12T08:43:03;276.08;;;60.72;;
31091;SDS011;67728;53.122;12.776;2023-02-12T08:44:35;276.50;;;60.85;;
31091;SDS011;67728;53.122;12.776;2023-02-12T08:46:08;284.58;;;61.50;;
31091;SDS011;67728;53.122;12.776;2023-02-12T08:47:41;289.80;;;60.85;;
31091;SDS011;67728;53.122;12.776;2023-02-12T08:49:13;295.10;;;60.70;;
31091;SDS011;67728;53.122;12.776;2023-02-12T08:50:46;283.95;;;61.33;;
31091;SDS011;67728;53.122;12.776;2023-02-12T08:52:18;281.48;;;60.42;;
31091;SDS011;67728;53.122;12.776;2023-02-12T08:53:51;329.83;;;67.10;;
31091;SDS011;67728;53.122;12.776;2023-02-12T08:55:24;297.30;;;60.25;;
31091;SDS011;67728;53.122;12.776;2023-02-12T08:56:57;290.92;;;60.35;;
31091;SDS011;67728;53.122;12.776;2023-02-12T08:58:31;291.05;;;61.03;;